createdAt,value
2023-01-11T00:01:53.968Z,2.47
2023-01-11T00:04:20.495Z,2.52
2023-01-11T00:06:48.053Z,2.60
2023-01-11T00:09:16.005Z,2.54
2023-01-11T00:11:46.548Z,2.43
2023-01-11T00:14:13.108Z,2.42
2023-01-11T00:16:41.540Z,2.26
2023-01-11T00:19:07.974Z,2.38
2023-01-11T00:21:34.356Z,2.33
2023-01-11T00:24:00.729Z,2.44
2023-01-11T00:26:27.137Z,2.44
2023-01-11T00:28:53.468Z,2.36
2023-01-11T00:31:19.820Z,2.39
2023-01-11T00:33:46.235Z,2.39
2023-01-11T00:36:13.062Z,2.33
2023-01-11T00:38:51.906Z,2.31
2023-01-11T00:41:37.149Z,2.30
2023-01-11T00:44:22.496Z,2.42
2023-01-11T00:47:08.677Z,2.59
2023-01-11T00:49:35.264Z,2.76
2023-01-11T00:52:05.581Z,2.73
2023-01-11T00:54:31.903Z,2.44
2023-01-11T00:56:58.284Z,2.27
2023-01-11T00:59:27.720Z,2.35
2023-01-11T01:01:54.076Z,2.54
2023-01-11T01:04:21.461Z,2.56
2023-01-11T01:06:47.938Z,2.61
2023-01-11T01:09:14.335Z,2.65
2023-01-11T01:11:40.793Z,2.44
2023-01-11T01:14:25.588Z,2.41
2023-01-11T01:16:58.091Z,2.40
2023-01-11T01:19:31.635Z,2.43
2023-01-11T01:21:58.872Z,2.19
2023-01-11T01:24:29.265Z,2.39
2023-01-11T01:26:56.170Z,2.25
2023-01-11T01:29:22.602Z,2.18
2023-01-11T01:31:48.955Z,2.21
2023-01-11T01:34:19.357Z,2.53
2023-01-11T01:36:45.686Z,2.25
2023-01-11T01:39:16.082Z,2.15
2023-01-11T01:41:42.526Z,2.24
2023-01-11T01:44:27.496Z,2.18
2023-01-11T01:46:53.839Z,2.20
2023-01-11T01:49:20.244Z,2.42
2023-01-11T01:51:52.209Z,2.42
2023-01-11T01:54:22.539Z,2.61
2023-01-11T01:56:51.834Z,2.55
2023-01-11T01:59:20.059Z,2.81
2023-01-11T02:01:50.179Z,2.58
2023-01-11T02:04:16.606Z,2.40
2023-01-11T02:06:42.993Z,2.34
2023-01-11T02:09:19.433Z,2.33
2023-01-11T02:11:46.909Z,2.24
2023-01-11T02:14:16.423Z,2.17
2023-01-11T02:16:42.757Z,2.33
2023-01-11T02:19:12.747Z,2.30
2023-01-11T02:21:42.222Z,2.32
2023-01-11T02:24:14.697Z,2.47
2023-01-11T02:26:48.562Z,2.21
2023-01-11T02:29:39.165Z,2.64
2023-01-11T02:32:24.265Z,2.41
2023-01-11T02:34:51.664Z,2.54
2023-01-11T02:37:24.085Z,2.55
2023-01-11T02:39:59.997Z,2.59
2023-01-11T02:42:51.450Z,2.84
2023-01-11T02:45:27.119Z,2.70
2023-01-11T02:47:59.034Z,2.71
2023-01-11T02:50:33.377Z,2.62
2023-01-11T02:53:26.069Z,2.84
2023-01-11T02:55:55.702Z,2.89
2023-01-11T02:58:24.926Z,2.88
2023-01-11T03:00:52.343Z,2.63
2023-01-11T03:03:21.921Z,2.75
2023-01-11T03:06:07.151Z,2.71
2023-01-11T03:08:52.090Z,2.77
2023-01-11T03:11:40.127Z,2.75
2023-01-11T03:14:17.414Z,3.04
2023-01-11T03:16:48.510Z,2.82
2023-01-11T03:19:25.026Z,2.31
2023-01-11T03:22:12.658Z,2.52
2023-01-11T03:24:45.199Z,2.35
2023-01-11T03:27:18.813Z,2.52
2023-01-11T03:29:54.370Z,2.66
2023-01-11T03:32:36.432Z,2.44
2023-01-11T03:35:18.363Z,2.73
2023-01-11T03:38:03.652Z,2.67
2023-01-11T03:40:32.843Z,2.75
2023-01-11T03:43:10.999Z,2.52
2023-01-11T03:45:39.995Z,2.52
2023-01-11T03:48:08.294Z,2.47
2023-01-11T03:50:34.942Z,2.64
2023-01-11T03:53:01.722Z,2.67
2023-01-11T03:55:30.541Z,2.75
2023-01-11T03:57:58.060Z,2.48
2023-01-11T04:00:24.714Z,2.41
2023-01-11T04:02:53.926Z,2.41
2023-01-11T04:05:21.400Z,2.31
2023-01-11T04:07:47.793Z,2.47
2023-01-11T04:10:14.159Z,2.31
2023-01-11T04:12:40.478Z,2.29
2023-01-11T04:15:13.273Z,2.36
2023-01-11T04:17:39.663Z,2.23
2023-01-11T04:20:07.940Z,2.41
2023-01-11T04:22:34.267Z,2.39
2023-01-11T04:25:00.759Z,2.02
2023-01-11T04:27:27.204Z,2.46
2023-01-11T04:29:53.527Z,2.68
2023-01-11T04:32:19.867Z,2.27
2023-01-11T04:34:46.244Z,2.60
2023-01-11T04:37:12.607Z,2.51
2023-01-11T04:39:38.932Z,2.10
2023-01-11T04:42:20.457Z,2.00
2023-01-11T04:44:50.435Z,2.13
2023-01-11T04:47:17.820Z,2.64
2023-01-11T04:49:45.015Z,2.60
2023-01-11T04:52:12.179Z,2.36
2023-01-11T04:54:39.071Z,2.22
2023-01-11T04:57:05.823Z,2.58
2023-01-11T04:59:32.143Z,2.46
2023-01-11T05:01:58.525Z,2.50
2023-01-11T05:04:31.144Z,2.66
2023-01-11T05:06:57.665Z,2.35
2023-01-11T05:09:23.990Z,2.80
2023-01-11T05:11:50.405Z,2.53
2023-01-11T05:14:17.224Z,2.56
2023-01-11T05:16:43.716Z,2.59
2023-01-11T05:19:10.932Z,2.35
2023-01-11T05:21:39.287Z,2.29
2023-01-11T05:24:07.094Z,2.35
2023-01-11T05:26:35.012Z,2.52
2023-01-11T05:29:03.655Z,2.56
2023-01-11T05:31:31.058Z,2.43
2023-01-11T05:33:58.172Z,2.46
2023-01-11T05:36:25.395Z,2.27
2023-01-11T05:38:52.823Z,2.26
2023-01-11T05:41:22.630Z,2.23
2023-01-11T05:44:08.491Z,2.46
2023-01-11T05:46:35.567Z,2.38
2023-01-11T05:49:02.233Z,2.44
2023-01-11T05:51:32.684Z,2.38
2023-01-11T05:54:03.444Z,2.21
2023-01-11T05:56:30.042Z,2.67
2023-01-11T05:58:56.483Z,2.51
2023-01-11T06:01:23.727Z,2.43
2023-01-11T06:03:50.565Z,2.41
2023-01-11T06:06:17.358Z,2.37
2023-01-11T06:08:43.855Z,2.67
2023-01-11T06:11:10.252Z,2.60
2023-01-11T06:13:36.647Z,2.54
2023-01-11T06:16:03.002Z,2.73
2023-01-11T06:18:30.201Z,2.51
2023-01-11T06:20:57.221Z,2.30
2023-01-11T06:23:26.713Z,2.48
2023-01-11T06:25:53.178Z,2.16
2023-01-11T06:28:28.617Z,2.39
2023-01-11T06:30:55.666Z,2.34
2023-01-11T06:33:22.911Z,2.65
2023-01-11T06:35:49.429Z,2.55
2023-01-11T06:38:17.241Z,2.70
2023-01-11T06:40:43.940Z,2.49
2023-01-11T06:43:10.414Z,2.59
2023-01-11T06:45:39.643Z,2.66
2023-01-11T06:48:06.191Z,3.01
2023-01-11T06:50:32.617Z,2.95
2023-01-11T06:53:01.858Z,2.83
2023-01-11T06:55:28.695Z,2.67
2023-01-11T06:57:55.193Z,2.79
2023-01-11T07:00:21.649Z,2.70
2023-01-11T07:02:48.398Z,3.01
2023-01-11T07:05:18.966Z,2.98
2023-01-11T07:07:45.758Z,2.98
2023-01-11T07:10:13.496Z,2.89
2023-01-11T07:12:40.155Z,3.00
2023-01-11T07:15:07.610Z,2.83
2023-01-11T07:17:38.050Z,2.84
2023-01-11T07:20:05.404Z,2.82
2023-01-11T07:22:36.697Z,2.99
2023-01-11T07:25:04.026Z,2.78
2023-01-11T07:27:30.803Z,2.92
2023-01-11T07:29:59.784Z,2.83
2023-01-11T07:32:27.477Z,3.36
2023-01-11T07:34:54.534Z,3.05
2023-01-11T07:37:28.083Z,2.91
2023-01-11T07:39:55.643Z,2.95
2023-01-11T07:42:40.790Z,3.00
2023-01-11T07:45:07.457Z,3.40
2023-01-11T07:47:33.945Z,3.26
2023-01-11T07:50:00.293Z,3.19
2023-01-11T07:52:26.655Z,3.20
2023-01-11T07:54:52.991Z,3.19
2023-01-11T07:57:19.405Z,3.32
2023-01-11T07:59:48.782Z,3.28
2023-01-11T08:02:15.126Z,3.19
2023-01-11T08:04:41.462Z,3.37
2023-01-11T08:07:07.813Z,3.40
2023-01-11T08:09:34.148Z,3.53
2023-01-11T08:12:19.014Z,3.45
2023-01-11T08:14:45.414Z,3.54
2023-01-11T08:17:13.581Z,3.66
2023-01-11T08:19:40.257Z,3.30
2023-01-11T08:22:06.860Z,3.58
2023-01-11T08:24:34.751Z,3.63
2023-01-11T08:27:01.754Z,3.85
2023-01-11T08:29:28.378Z,3.80
2023-01-11T08:32:01.756Z,3.66
2023-01-11T08:34:29.204Z,3.98
2023-01-11T08:37:01.891Z,3.72
2023-01-11T08:39:30.972Z,4.15
2023-01-11T08:41:57.852Z,4.11
2023-01-11T08:44:33.655Z,4.06
2023-01-11T08:47:00.701Z,3.86
2023-01-11T08:49:27.031Z,3.94
2023-01-11T08:51:53.391Z,4.01
2023-01-11T08:54:19.726Z,3.96
2023-01-11T08:56:46.055Z,4.07
2023-01-11T08:59:12.589Z,4.11
2023-01-11T09:01:39.037Z,4.18
2023-01-11T09:04:19.105Z,4.13
2023-01-11T09:06:50.126Z,4.24
2023-01-11T09:09:17.014Z,4.12
2023-01-11T09:11:56.641Z,4.55
2023-01-11T09:14:27.207Z,4.38
2023-01-11T09:16:54.507Z,4.43
2023-01-11T09:19:21.094Z,4.50
2023-01-11T09:21:47.624Z,4.59
2023-01-11T09:24:14.312Z,4.43
2023-01-11T09:26:42.294Z,4.46
2023-01-11T09:29:08.948Z,4.72
2023-01-11T09:31:35.427Z,4.68
2023-01-11T09:34:01.759Z,4.64
2023-01-11T09:36:29.030Z,4.41
2023-01-11T09:38:57.742Z,4.53
2023-01-11T09:41:43.019Z,4.52
2023-01-11T09:44:16.258Z,4.45
2023-01-11T09:46:46.140Z,4.51
2023-01-11T09:49:28.061Z,4.33
2023-01-11T09:52:14.877Z,4.39
2023-01-11T09:54:41.289Z,4.40
2023-01-11T09:57:13.874Z,4.26
2023-01-11T09:59:48.611Z,4.46
2023-01-11T10:02:18.950Z,4.32
2023-01-11T10:04:45.352Z,4.47
2023-01-11T10:07:29.875Z,4.58
2023-01-11T10:18:36.990Z,4.84
2023-01-11T10:19:18.580Z,4.78
2023-01-11T10:21:55.857Z,4.89
2023-01-11T10:24:25.699Z,5.04
2023-01-11T10:26:56.948Z,5.05
2023-01-11T10:29:44.857Z,5.10
2023-01-11T10:32:54.473Z,5.27
2023-01-11T10:35:45.884Z,5.27
2023-01-11T10:38:37.117Z,5.19
2023-01-11T10:41:20.148Z,5.71
2023-01-11T10:43:49.408Z,5.55
2023-01-11T10:46:18.183Z,5.65
2023-01-11T10:49:03.661Z,5.98
2023-01-11T10:51:37.910Z,6.16
2023-01-11T10:54:16.779Z,6.37
2023-01-11T10:57:03.017Z,6.27
2023-01-11T10:59:50.965Z,6.65
2023-01-11T11:02:17.362Z,6.63
2023-01-11T11:04:45.928Z,6.85
2023-01-11T11:07:15.036Z,6.65
2023-01-11T11:09:50.254Z,6.80
2023-01-11T11:12:23.268Z,7.21
2023-01-11T11:14:49.594Z,6.99
2023-01-11T11:17:27.590Z,6.54
2023-01-11T11:19:54.991Z,6.46
2023-01-11T11:22:21.391Z,6.63
2023-01-11T11:25:08.099Z,5.93
2023-01-11T11:27:39.800Z,6.08
2023-01-11T11:30:11.982Z,6.36
2023-01-11T11:32:39.837Z,6.32
2023-01-11T11:35:08.001Z,6.07
2023-01-11T11:37:41.917Z,5.96
2023-01-11T11:40:28.941Z,6.08
2023-01-11T11:43:15.571Z,6.12
2023-01-11T11:45:52.343Z,6.12
2023-01-11T11:48:19.098Z,5.89
2023-01-11T11:50:46.431Z,5.67
2023-01-11T11:53:30.928Z,5.87
2023-01-11T11:56:15.994Z,5.95
2023-01-11T11:58:43.240Z,5.99
2023-01-11T12:01:20.412Z,6.12
2023-01-11T12:03:47.583Z,6.31
2023-01-11T12:06:21.036Z,6.32
2023-01-11T12:08:47.360Z,6.45
2023-01-11T12:11:17.806Z,6.43
2023-01-11T12:13:58.550Z,6.22
2023-01-11T12:16:29.896Z,6.05
2023-01-11T12:18:56.370Z,6.04
2023-01-11T12:21:24.074Z,6.09
2023-01-11T12:24:10.807Z,6.12
2023-01-11T12:26:44.361Z,5.98
2023-01-11T12:29:17.912Z,6.02
2023-01-11T12:32:07.626Z,6.19
2023-01-11T12:34:49.028Z,6.40
2023-01-11T12:37:25.343Z,6.49
2023-01-11T12:40:10.257Z,6.42
2023-01-11T12:42:52.989Z,6.47
2023-01-11T12:45:19.354Z,6.33
2023-01-11T12:48:05.218Z,6.22
2023-01-11T12:53:18.159Z,6.20
2023-01-11T12:55:44.502Z,6.10
2023-01-11T12:58:29.271Z,6.23
2023-01-11T13:01:05.611Z,6.34
2023-01-11T13:03:41.217Z,6.12
2023-01-11T13:06:10.563Z,6.16
2023-01-11T13:08:36.969Z,6.27
2023-01-11T13:11:35.262Z,6.41
2023-01-11T13:14:28.522Z,6.30
2023-01-11T13:17:01.938Z,6.15
2023-01-11T13:19:33.122Z,6.18
2023-01-11T13:22:04.537Z,6.30
2023-01-11T13:24:32.450Z,6.10
2023-01-11T13:27:01.256Z,6.28
2023-01-11T13:29:30.435Z,6.20
2023-01-11T13:32:03.063Z,6.20
2023-01-11T13:34:47.274Z,6.25
2023-01-11T13:37:22.804Z,6.23
2023-01-11T13:39:54.738Z,6.03
2023-01-11T13:42:23.554Z,6.29
2023-01-11T13:44:53.592Z,6.27
2023-01-11T13:47:25.776Z,6.19
2023-01-11T13:49:55.676Z,6.08
2023-01-11T13:52:40.087Z,6.04
2023-01-11T13:55:24.855Z,6.12
2023-01-11T13:57:57.938Z,5.99
2023-01-11T14:00:30.738Z,5.81
2023-01-11T14:03:09.865Z,5.91
2023-01-11T14:05:54.883Z,5.96
2023-01-11T14:08:29.964Z,6.07
2023-01-11T14:10:59.151Z,5.99
2023-01-11T14:13:56.485Z,6.02
2023-01-11T14:16:34.705Z,6.06
2023-01-11T14:19:21.718Z,6.09
2023-01-11T14:22:08.861Z,6.10
2023-01-11T14:24:37.708Z,6.19
2023-01-11T14:27:13.162Z,6.17
2023-01-11T14:30:07.515Z,6.21
2023-01-11T14:32:38.978Z,6.13
2023-01-11T14:35:25.560Z,6.23
2023-01-11T14:37:57.854Z,6.17
2023-01-11T14:40:24.172Z,6.20
2023-01-11T14:43:11.234Z,6.34
2023-01-11T14:45:46.667Z,6.20
2023-01-11T14:48:40.423Z,6.13
2023-01-11T14:51:30.685Z,6.39
2023-01-11T14:54:27.731Z,6.16
2023-01-11T14:56:59.012Z,6.27
2023-01-11T14:59:33.298Z,6.22
2023-01-11T15:02:06.214Z,6.21
2023-01-11T15:04:34.657Z,6.00
2023-01-11T15:07:20.097Z,6.12
2023-01-11T15:09:50.771Z,6.21
2023-01-11T15:12:21.251Z,6.19
2023-01-11T15:15:00.981Z,6.22
2023-01-11T15:18:01.456Z,6.24
2023-01-11T15:20:30.722Z,6.08
2023-01-11T15:22:59.602Z,6.21
2023-01-11T15:25:27.574Z,6.17
2023-01-11T15:27:54.964Z,6.23
2023-01-11T15:30:34.639Z,6.21
2023-01-11T15:33:20.714Z,6.23
2023-01-11T15:36:03.534Z,6.18
2023-01-11T15:38:32.727Z,6.30
2023-01-11T15:41:19.114Z,6.33
2023-01-11T15:44:05.401Z,6.43
2023-01-11T15:46:53.103Z,6.45
2023-01-11T15:49:40.522Z,6.42
2023-01-11T15:52:30.701Z,6.40
2023-01-11T15:55:03.653Z,6.36
2023-01-11T15:57:40.523Z,6.29
2023-01-11T16:00:06.898Z,6.30
2023-01-11T16:02:55.903Z,6.32
2023-01-11T16:05:29.506Z,6.39
2023-01-11T16:08:03.761Z,6.43
2023-01-11T16:10:52.053Z,6.48
2023-01-11T16:13:37.152Z,6.47
2023-01-11T16:16:05.554Z,6.49
2023-01-11T16:18:41.817Z,6.46
2023-01-11T16:21:21.512Z,6.50
2023-01-11T16:23:48.740Z,6.46
2023-01-11T16:26:19.718Z,6.44
2023-01-11T16:28:48.616Z,6.40
2023-01-11T16:31:22.429Z,6.44
2023-01-11T16:33:51.965Z,6.46
2023-01-11T16:36:26.506Z,6.38
2023-01-11T16:38:53.930Z,6.39
2023-01-11T16:41:22.944Z,6.35
2023-01-11T16:43:52.743Z,6.43
2023-01-11T16:46:45.166Z,6.49
2023-01-11T16:49:15.593Z,6.48
2023-01-11T16:51:49.478Z,6.50
2023-01-11T16:54:32.256Z,6.43
2023-01-11T16:57:00.309Z,6.30
2023-01-11T16:59:30.505Z,6.33
2023-01-11T17:02:01.302Z,6.26
2023-01-11T17:04:38.061Z,6.27
2023-01-11T17:07:12.119Z,6.27
2023-01-11T17:09:38.586Z,6.39
2023-01-11T17:12:05.809Z,6.28
2023-01-11T17:14:47.632Z,6.22
2023-01-11T17:17:14.212Z,6.25
2023-01-11T17:19:45.475Z,6.30
2023-01-11T17:22:14.546Z,6.33
2023-01-11T17:24:42.611Z,6.37
2023-01-11T17:27:17.700Z,6.43
2023-01-11T17:29:44.765Z,6.45
2023-01-11T17:32:22.390Z,6.48
2023-01-11T17:34:49.712Z,6.42
2023-01-11T17:37:17.395Z,6.48
2023-01-11T17:39:46.988Z,6.51
2023-01-11T17:42:38.479Z,6.52
2023-01-11T17:45:20.826Z,6.52
2023-01-11T17:47:49.379Z,6.49
2023-01-11T17:50:27.532Z,6.52
2023-01-11T17:53:14.075Z,6.47
2023-01-11T17:55:55.731Z,6.43
2023-01-11T17:58:35.263Z,6.45
2023-01-11T18:01:04.939Z,6.49
2023-01-11T18:03:38.653Z,6.45
2023-01-11T18:06:11.714Z,6.35
2023-01-11T18:08:46.394Z,6.42
2023-01-11T18:11:14.696Z,6.40
2023-01-11T18:13:41.168Z,6.40
2023-01-11T18:16:07.541Z,6.50
2023-01-11T18:18:45.239Z,6.49
2023-01-11T18:21:26.601Z,6.48
2023-01-11T18:24:11.244Z,6.46
2023-01-11T18:26:38.637Z,6.45
2023-01-11T18:29:37.600Z,6.47
2023-01-11T18:32:04.703Z,6.40
2023-01-11T18:34:37.290Z,6.41
2023-01-11T18:37:06.474Z,6.51
2023-01-11T18:39:33.291Z,6.55
2023-01-11T18:42:09.408Z,6.56
2023-01-11T18:44:36.235Z,6.57
2023-01-11T18:47:15.159Z,6.66
2023-01-11T18:49:41.686Z,6.66
2023-01-11T18:52:08.123Z,6.64
2023-01-11T18:54:40.835Z,6.64
2023-01-11T18:57:07.454Z,6.68
2023-01-11T18:59:35.042Z,6.68
2023-01-11T19:02:17.281Z,6.70
2023-01-11T19:04:45.540Z,6.73
2023-01-11T19:07:20.251Z,6.66
2023-01-11T19:09:46.991Z,6.66
2023-01-11T19:12:14.772Z,6.71
2023-01-11T19:14:41.214Z,6.52
2023-01-11T19:17:09.078Z,6.55
2023-01-11T19:19:42.350Z,6.52
2023-01-11T19:22:10.313Z,6.55
2023-01-11T19:24:38.130Z,6.63
2023-01-11T19:27:04.547Z,6.67
2023-01-11T19:29:31.025Z,6.67
2023-01-11T19:31:57.645Z,6.68
2023-01-11T19:34:27.101Z,6.61
2023-01-11T19:36:54.515Z,6.70
2023-01-11T19:39:20.835Z,6.66
2023-01-11T19:42:03.025Z,6.65
2023-01-11T19:44:33.838Z,6.68
2023-01-11T19:47:16.651Z,6.66
2023-01-11T19:49:44.535Z,6.63
2023-01-11T19:52:18.595Z,6.56
2023-01-11T19:54:46.130Z,6.59
2023-01-11T19:57:21.253Z,6.53
2023-01-11T19:59:49.313Z,6.52
2023-01-11T20:02:16.761Z,6.61
2023-01-11T20:04:44.357Z,6.48
2023-01-11T20:07:11.397Z,6.49
2023-01-11T20:09:38.025Z,6.37
2023-01-11T20:12:07.156Z,6.39
2023-01-11T20:14:34.246Z,6.42
2023-01-11T20:17:00.901Z,6.44
2023-01-11T20:19:27.267Z,6.48
2023-01-11T20:22:00.666Z,6.45
2023-01-11T20:24:30.190Z,6.48
2023-01-11T20:27:03.784Z,6.50
2023-01-11T20:29:34.300Z,6.49
2023-01-11T20:32:24.643Z,6.47
2023-01-11T20:34:47.929Z,6.45
2023-01-11T20:37:20.549Z,6.43
2023-01-11T20:39:47.012Z,6.46
2023-01-11T20:42:15.359Z,6.49
2023-01-11T20:44:41.970Z,6.46
2023-01-11T20:47:11.544Z,6.53
2023-01-11T20:49:37.978Z,6.46
2023-01-11T20:52:04.972Z,6.43
2023-01-11T20:54:31.279Z,6.35
2023-01-11T20:57:05.627Z,6.42
2023-01-11T20:59:33.407Z,6.38
2023-01-11T21:01:59.785Z,6.38
2023-01-11T21:04:26.181Z,6.48
2023-01-11T21:06:52.489Z,6.48
2023-01-11T21:09:18.989Z,6.53
2023-01-11T21:11:52.446Z,6.52
2023-01-11T21:14:19.054Z,6.51
2023-01-11T21:16:47.695Z,6.62
2023-01-11T21:19:15.004Z,6.61
2023-01-11T21:21:41.616Z,6.65
2023-01-11T21:24:08.350Z,6.62
2023-01-11T21:26:34.985Z,6.61
2023-01-11T21:29:02.692Z,6.57
2023-01-11T21:31:30.520Z,6.61
2023-01-11T21:33:57.967Z,6.53
2023-01-11T21:36:25.435Z,6.52
2023-01-11T21:38:54.531Z,6.61
2023-01-11T21:41:42.177Z,6.66
2023-01-11T21:44:08.953Z,6.64
2023-01-11T21:46:43.688Z,6.64
2023-01-11T21:49:10.716Z,6.65
2023-01-11T21:51:37.098Z,6.61
2023-01-11T21:54:05.405Z,6.66
2023-01-11T21:56:31.901Z,6.77
2023-01-11T21:59:00.372Z,6.67
2023-01-11T22:01:26.868Z,6.76
2023-01-11T22:03:53.289Z,6.84
2023-01-11T22:06:19.911Z,6.65
2023-01-11T22:08:46.329Z,6.58
2023-01-11T22:11:13.770Z,6.54
2023-01-11T22:13:41.595Z,6.67
2023-01-11T22:16:09.237Z,6.50
2023-01-11T22:18:35.833Z,6.51
2023-01-11T22:21:06.436Z,6.53
2023-01-11T22:23:32.750Z,6.36
2023-01-11T22:26:02.915Z,6.39
2023-01-11T22:28:29.214Z,6.37
2023-01-11T22:30:55.537Z,6.38
2023-01-11T22:33:23.876Z,6.55
2023-01-11T22:35:54.132Z,6.51
2023-01-11T22:38:20.445Z,6.55
2023-01-11T22:40:46.816Z,6.33
2023-01-11T22:43:14.195Z,6.23
2023-01-11T22:45:41.546Z,6.20
2023-01-11T22:48:07.893Z,6.30
2023-01-11T22:50:34.216Z,6.42
2023-01-11T22:53:00.568Z,6.34
2023-01-11T22:55:26.872Z,6.33
2023-01-11T22:57:53.383Z,6.34
2023-01-11T23:00:20.900Z,6.40
2023-01-11T23:02:56.119Z,6.32
2023-01-11T23:05:22.493Z,6.37
2023-01-11T23:07:49.008Z,6.46
2023-01-11T23:10:15.602Z,6.38
2023-01-11T23:13:00.423Z,6.33
2023-01-11T23:15:37.493Z,6.53
2023-01-11T23:18:04.773Z,6.50
2023-01-11T23:20:33.566Z,6.40
2023-01-11T23:23:00.021Z,6.54
2023-01-11T23:25:26.469Z,6.53
2023-01-11T23:27:55.371Z,6.29
2023-01-11T23:30:21.789Z,6.45
2023-01-11T23:33:08.141Z,6.13
2023-01-11T23:35:34.478Z,6.18
2023-01-11T23:38:00.881Z,6.28
2023-01-11T23:40:27.203Z,6.34
2023-01-11T23:42:53.584Z,6.03
2023-01-11T23:45:23.086Z,6.08
2023-01-11T23:47:49.416Z,6.10
2023-01-11T23:50:16.830Z,5.96
2023-01-11T23:52:43.191Z,5.99
2023-01-11T23:55:13.884Z,5.96
2023-01-11T23:58:00.223Z,5.81
